Millenium Air

Millenium Air Since 1998



 METAR AND TAF INFORMATION
METAR FOR GOBD
ADDS - METARS form results

(0747 UTC 29 January 2022)
Data provider http://aviationweather.gov/metar/data/
 
METAR text: GOBD 290730Z 02012KT CAVOK 19/12 Q1013 NOSIG
Conditions at: GOBD (DAKAR/DIAGNE , SN) observed 0730 UTC 29 January 2022
Temperature: 19.0°C (66°F)
Dewpoint: 12.0°C (54°F) [RH = 64%]
Pressure (altimeter): 29.91 inches Hg (1013.0 mb)
Winds: from the NNE (20 degrees) at 14 MPH (12 knots; 6.2 m/s)
Visibility: 6 or more miles (10+ km)
Ceiling: ceiling and visibility are OK
Clouds: unknown
Weather: no significant weather observed at this time

METAR text: GOBD 290700Z 02012KT CAVOK 19/13 Q1013 NOSIG
Conditions at: GOBD (DAKAR/DIAGNE , SN) observed 0700 UTC 29 January 2022
Temperature: 19.0°C (66°F)
Dewpoint: 13.0°C (55°F) [RH = 68%]
Pressure (altimeter): 29.91 inches Hg (1013.0 mb)
Winds: from the NNE (20 degrees) at 14 MPH (12 knots; 6.2 m/s)
Visibility: 6 or more miles (10+ km)
Ceiling: ceiling and visibility are OK
Clouds: unknown
Weather: no significant weather observed at this time

Forecast for: GOBD (DAKAR/DIAGNE , SN)
Text: TAF GOBD 282312Z 0200/0306 36015KT CAVOK
Forecast period: 0000 UTC 02 February 2022 to 0600 UTC 03 February 2022
Forecast type: FROM: standard forecast or significant change
Winds: from the N (360 degrees) at 17 MPH (15 knots; 7.7 m/s)
Visibility: 6 or more miles (10+ km)
Ceiling: unknown
Clouds: missing
Weather: NSW  (no significant weather)

 AIRPORT MAP

 RUNWAY INFORMATION

 AIRPORT FREQUENCIES

 AIRPORT NEAR NAVIGATION AIDS